Time;durP1;ratioP1;P1;durP2;ratioP2;P2;SDS_P1;SDS_P2;PMS_P1;PMS_P2;Temp;Humidity;BMP_temperature;BMP_pressure;BME280_temperature;BME280_humidity;BME280_pressure;Samples;Min_cycle;Max_cycle;Signal;HPM_P1;HPM_P2
2023/12/25 00:00:26;;;;;;;13.85;3.10;;;;;;;9.21;100.00;99596.06;5064682;28;20040;-56
2023/12/25 00:02:54;;;;;;;12.00;2.30;;;;;;;9.23;100.00;99601.22;5055440;28;20067;-51
2023/12/25 00:05:21;;;;;;;6.97;2.63;;;;;;;9.23;100.00;99612.25;5059880;28;20048;-55
2023/12/25 00:07:49;;;;;;;10.00;2.33;;;;;;;9.23;100.00;99615.00;5062833;28;20048;-49
2023/12/25 00:10:16;;;;;;;16.13;2.85;;;;;;;9.23;100.00;99623.28;5059536;28;20075;-53
2023/12/25 00:12:43;;;;;;;16.10;3.20;;;;;;;9.21;100.00;99614.59;5063486;28;20414;-52
2023/12/25 00:15:11;;;;;;;8.70;2.03;;;;;;;9.18;100.00;99627.16;5056883;28;20052;-50
2023/12/25 00:17:38;;;;;;;17.50;2.90;;;;;;;9.15;100.00;99614.88;5057387;28;20044;-50
2023/12/25 00:20:06;;;;;;;10.75;2.58;;;;;;;9.13;100.00;99622.69;5054129;28;20044;-51
2023/12/25 00:22:34;;;;;;;14.90;1.90;;;;;;;9.09;100.00;99632.88;5059816;28;20048;-51
2023/12/25 00:25:01;;;;;;;12.00;2.28;;;;;;;9.09;100.00;99621.03;5061750;28;20044;-51
2023/12/25 00:27:28;;;;;;;11.73;2.30;;;;;;;9.05;100.00;99615.44;5067076;28;20048;-53
2023/12/25 00:29:56;;;;;;;16.73;2.45;;;;;;;9.03;100.00;99617.75;5066930;28;20040;-51
2023/12/25 00:32:23;;;;;;;13.30;2.05;;;;;;;8.99;100.00;99605.84;5067216;28;20048;-53
2023/12/25 00:34:50;;;;;;;17.65;4.47;;;;;;;8.98;100.00;99604.25;5066953;28;21325;-54
2023/12/25 00:37:18;;;;;;;11.77;2.50;;;;;;;8.97;100.00;99590.81;5067034;28;20044;-48
2023/12/25 00:39:46;;;;;;;10.82;3.90;;;;;;;8.95;100.00;99599.44;5066599;28;20052;-52
2023/12/25 00:42:15;;;;;;;9.18;1.70;;;;;;;8.93;100.00;99601.78;5067625;28;20103;-53
2023/12/25 00:44:43;;;;;;;12.38;2.40;;;;;;;8.92;100.00;99591.88;5067293;28;20603;-54
2023/12/25 00:47:11;;;;;;;13.73;4.18;;;;;;;8.91;100.00;99598.59;5046760;28;20052;-52
2023/12/25 00:49:39;;;;;;;14.18;2.45;;;;;;;8.90;100.00;99609.97;5067428;28;20048;-51
2023/12/25 00:52:06;;;;;;;14.38;4.45;;;;;;;8.88;100.00;99610.34;5067417;28;20051;-52
2023/12/25 00:54:35;;;;;;;15.23;2.42;;;;;;;8.86;100.00;99601.63;5055990;28;20060;-48
2023/12/25 00:57:03;;;;;;;15.48;2.35;;;;;;;8.86;100.00;99615.44;5065571;28;20422;-52
2023/12/25 00:59:30;;;;;;;8.57;2.10;;;;;;;8.84;100.00;99620.50;5066732;28;20045;-50
2023/12/25 01:01:58;;;;;;;19.02;4.55;;;;;;;8.86;100.00;99614.63;5066486;28;20052;-51
2023/12/25 01:04:27;;;;;;;7.05;1.98;;;;;;;8.86;100.00;99606.34;5046466;28;21460;-50
2023/12/25 01:06:54;;;;;;;16.80;2.80;;;;;;;8.88;100.00;99610.34;5047243;28;20045;-49
2023/12/25 01:09:22;;;;;;;18.40;4.05;;;;;;;8.88;100.00;99610.34;5047157;28;20056;-53
2023/12/25 01:11:49;;;;;;;15.02;2.38;;;;;;;8.89;100.00;99606.44;5046812;28;20049;-49
2023/12/25 01:14:17;;;;;;;15.57;2.17;;;;;;;8.90;100.00;99602.50;5047351;28;20057;-57
2023/12/25 01:16:44;;;;;;;11.05;2.03;;;;;;;8.92;100.00;99600.16;5046693;28;20056;-49
2023/12/25 01:19:13;;;;;;;13.80;2.78;;;;;;;8.92;100.00;99589.13;5046210;28;20052;-50
2023/12/25 01:21:41;;;;;;;13.05;2.22;;;;;;;8.94;100.00;99592.34;5046681;28;20041;-49
2023/12/25 01:24:08;;;;;;;7.72;1.60;;;;;;;8.94;100.00;99597.06;5046944;28;20049;-51
2023/12/25 01:26:36;;;;;;;18.13;4.03;;;;;;;8.91;100.00;99601.34;5046774;28;20057;-52
2023/12/25 01:29:03;;;;;;;15.40;3.78;;;;;;;8.91;100.00;99603.28;5046763;28;20060;-49
2023/12/25 01:31:30;;;;;;;16.55;2.83;;;;;;;8.91;100.00;99614.34;5047088;28;20526;-49
2023/12/25 01:33:57;;;;;;;17.60;5.13;;;;;;;8.91;100.00;99597.78;5028778;28;20079;-49
2023/12/25 01:36:25;;;;;;;11.02;2.30;;;;;;;8.95;100.00;99613.25;5046887;28;20052;-53
2023/12/25 01:38:52;;;;;;;8.18;1.95;;;;;;;8.95;100.00;99604.97;5046389;28;20049;-52
2023/12/25 01:41:20;;;;;;;14.40;2.85;;;;;;;8.97;100.00;99612.91;5046493;28;20049;-51
2023/12/25 01:43:47;;;;;;;15.18;2.63;;;;;;;8.98;100.00;99618.06;5046578;28;20049;-53
2023/12/25 01:46:14;;;;;;;12.52;2.47;;;;;;;8.97;100.00;99605.44;5047047;28;20033;-49
2023/12/25 01:48:43;;;;;;;13.80;3.53;;;;;;;8.95;100.00;99610.50;5046125;28;20056;-53
2023/12/25 01:51:11;;;;;;;12.75;3.58;;;;;;;8.96;100.00;99608.53;5046787;28;20053;-52
2023/12/25 01:53:39;;;;;;;13.73;2.67;;;;;;;8.96;100.00;99605.78;5046503;28;20045;-54
2023/12/25 01:56:06;;;;;;;15.50;2.58;;;;;;;8.96;100.00;99603.81;5046222;28;20049;-49
2023/12/25 01:58:34;;;;;;;16.75;3.35;;;;;;;8.97;100.00;99608.19;5046033;28;20057;-50
2023/12/25 02:01:02;;;;;;;14.60;2.47;;;;;;;8.98;100.00;99598.72;5046855;28;20048;-49
2023/12/25 02:03:29;;;;;;;16.60;2.40;;;;;;;8.99;100.00;99611.38;5046443;28;20056;-52
2023/12/25 02:05:57;;;;;;;10.18;2.70;;;;;;;9.00;100.00;99620.47;5048367;28;20052;-50
2023/12/25 02:08:27;;;;;;;13.45;4.07;;;;;;;9.01;100.00;99616.53;5050925;28;20095;-50
2023/12/25 02:11:02;;;;;;;14.48;2.58;;;;;;;9.01;100.00;99627.56;5049587;28;20053;-54
2023/12/25 02:13:29;;;;;;;16.35;3.10;;;;;;;9.01;100.00;99619.28;5050350;28;20141;-52
2023/12/25 02:16:01;;;;;;;20.15;2.88;;;;;;;9.00;100.00;99624.00;5032247;28;20055;-49
2023/12/25 02:18:28;;;;;;;12.77;2.50;;;;;;;9.00;100.00;99621.25;5050355;28;20041;-54
2023/12/25 02:20:56;;;;;;;18.98;3.38;;;;;;;9.01;100.00;99628.38;5049724;28;20056;-48
2023/12/25 02:23:26;;;;;;;14.95;2.38;;;;;;;9.00;100.00;99624.00;5050176;28;20045;-49
2023/12/25 02:25:55;;;;;;;17.55;3.20;;;;;;;9.01;100.00;99619.28;5049731;28;20060;-49
2023/12/25 02:28:23;;;;;;;10.98;2.63;;;;;;;9.03;100.00;99626.03;5050304;28;20060;-51
2023/12/25 02:30:51;;;;;;;14.25;2.78;;;;;;;9.03;100.00;99620.53;5049775;28;20128;-53
2023/12/25 02:33:18;;;;;;;9.35;2.38;;;;;;;9.04;100.00;99615.81;5050323;28;20060;-53
2023/12/25 02:35:46;;;;;;;8.65;2.75;;;;;;;9.02;100.00;99616.19;5036483;28;20062;-49
2023/12/25 02:38:15;;;;;;;15.85;3.15;;;;;;;9.01;100.00;99620.09;5050601;28;20655;-50
2023/12/25 02:40:43;;;;;;;23.52;4.10;;;;;;;9.00;100.00;99628.75;5048706;28;20045;-50
2023/12/25 02:43:11;;;;;;;12.82;4.13;;;;;;;8.97;100.00;99629.47;5049798;28;20045;-53
2023/12/25 02:45:39;;;;;;;15.40;2.97;;;;;;;8.95;100.00;99643.59;5049423;28;20048;-50
2023/12/25 02:48:06;;;;;;;10.02;2.60;;;;;;;8.90;100.00;99641.13;5050187;28;20056;-49
2023/12/25 02:50:34;;;;;;;14.57;2.50;;;;;;;8.87;100.00;99646.59;5049097;28;20049;-52
2023/12/25 02:53:05;;;;;;;8.85;1.95;;;;;;;8.82;100.00;99638.56;5031425;28;20056;-50
2023/12/25 02:55:32;;;;;;;15.52;2.45;;;;;;;8.77;100.00;99653.47;5049170;28;20052;-52
2023/12/25 02:58:00;;;;;;;12.13;3.35;;;;;;;8.74;100.00;99654.16;5032108;28;20052;-55
2023/12/25 03:03:22;;;;;;;12.48;2.78;;;;;;;8.69;100.00;99653.66;4991494;28;20057;-51
2023/12/25 03:05:49;;;;;;;16.17;2.47;;;;;;;8.70;100.00;99655.25;5010047;28;20050;-48
2023/12/25 03:08:17;;;;;;;13.70;3.10;;;;;;;8.71;100.00;99643.84;4994398;28;20046;-47
2023/12/25 03:10:44;;;;;;;18.55;3.05;;;;;;;8.73;100.00;99652.59;4999151;28;20491;-48
2023/12/25 03:13:12;;;;;;;12.88;2.78;;;;;;;8.75;100.00;99649.47;5003220;28;20050;-53
2023/12/25 03:15:40;;;;;;;17.48;3.10;;;;;;;8.77;100.00;99645.19;5000237;28;20046;-49
2023/12/25 03:18:07;;;;;;;18.27;4.75;;;;;;;8.79;100.00;99645.59;4996279;28;20065;-47
2023/12/25 03:20:35;;;;;;;17.90;3.05;;;;;;;8.81;100.00;99637.78;5009109;28;20046;-54
2023/12/25 03:23:02;;;;;;;15.25;2.92;;;;;;;8.82;100.00;99652.38;5008921;28;20038;-47
2023/12/25 03:25:30;;;;;;;17.35;2.65;;;;;;;8.84;100.00;99659.13;4998493;28;20054;-51
2023/12/25 03:27:57;;;;;;;12.05;3.13;;;;;;;8.85;100.00;99644.19;5003062;28;20046;-50
2023/12/25 03:30:24;;;;;;;14.27;2.55;;;;;;;8.87;100.00;99655.66;5001544;28;20049;-49
2023/12/25 03:32:52;;;;;;;20.83;3.75;;;;;;;8.87;100.00;99650.13;4989865;28;20050;-51
2023/12/25 03:35:19;;;;;;;11.50;2.47;;;;;;;8.90;100.00;99640.31;4989784;28;20149;-46
2023/12/25 03:37:46;;;;;;;14.07;3.17;;;;;;;8.91;100.00;99651.03;5008250;28;20376;-50
2023/12/25 03:40:14;;;;;;;12.82;3.75;;;;;;;8.93;100.00;99647.91;4996159;28;20074;-49
2023/12/25 03:42:43;;;;;;;18.58;2.85;;;;;;;8.94;100.00;99652.25;5002480;28;20046;-49
2023/12/25 03:45:10;;;;;;;16.77;2.70;;;;;;;8.95;100.00;99649.13;5002472;28;20049;-49
2023/12/25 03:47:37;;;;;;;22.02;3.03;;;;;;;8.97;100.00;99634.97;4991024;28;20045;-50
2023/12/25 03:50:05;;;;;;;16.38;3.15;;;;;;;8.99;100.00;99633.47;4995741;28;20047;-48
2023/12/25 03:52:32;;;;;;;20.98;3.05;;;;;;;8.99;100.00;99630.69;5008616;28;20400;-50
2023/12/25 03:55:00;;;;;;;8.43;2.70;;;;;;;9.01;100.00;99631.13;5005592;28;20049;-47
2023/12/25 03:57:27;;;;;;;28.10;5.57;;;;;;;9.02;100.00;99631.94;4996831;28;20054;-47
2023/12/25 03:59:54;;;;;;;17.35;3.17;;;;;;;9.00;100.00;99635.03;4995581;28;20046;-48
2023/12/25 04:02:22;;;;;;;18.15;2.88;;;;;;;9.01;100.00;99650.47;4999788;28;20050;-46
2023/12/25 04:04:49;;;;;;;12.65;2.55;;;;;;;9.02;100.00;99648.50;5001740;28;20068;-51
2023/12/25 04:07:17;;;;;;;22.08;4.10;;;;;;;8.99;100.00;99644.50;4989358;28;20081;-48
2023/12/25 04:09:44;;;;;;;17.73;3.28;;;;;;;8.96;100.00;99634.19;4992980;28;20046;-48
2023/12/25 04:12:11;;;;;;;13.63;3.40;;;;;;;8.92;100.00;99638.81;5004273;28;20046;-47
2023/12/25 04:14:39;;;;;;;11.65;2.53;;;;;;;8.87;100.00;99625.28;4994550;28;20047;-49
2023/12/25 04:17:07;;;;;;;9.27;2.92;;;;;;;8.84;100.00;99620.50;4999141;28;20058;-48
2023/12/25 04:19:34;;;;;;;10.15;2.97;;;;;;;8.81;100.00;99632.28;5005424;28;20045;-48
2023/12/25 04:22:02;;;;;;;13.82;3.28;;;;;;;8.78;100.00;99637.72;5008006;28;20042;-50
2023/12/25 04:24:29;;;;;;;13.98;3.55;;;;;;;8.75;100.00;99632.91;5008279;28;20049;-48
2023/12/25 04:26:57;;;;;;;13.32;2.30;;;;;;;8.73;100.00;99619.47;4997875;28;20058;-46
2023/12/25 04:29:24;;;;;;;10.73;2.95;;;;;;;8.71;100.00;99632.81;5005177;28;20042;-49
2023/12/25 04:31:51;;;;;;;13.02;2.45;;;;;;;8.67;100.00;99625.63;5007880;28;20763;-50
2023/12/25 04:34:19;;;;;;;15.75;2.90;;;;;;;8.65;100.00;99623.22;5004842;28;20053;-48
2023/12/25 04:36:46;;;;;;;18.75;3.05;;;;;;;8.65;100.00;99633.47;4988456;28;20053;-47
2023/12/25 04:39:13;;;;;;;10.55;2.92;;;;;;;8.63;100.00;99627.50;5001894;28;20061;-50
2023/12/25 04:41:41;;;;;;;15.35;1.83;;;;;;;8.63;100.00;99622.00;4987721;28;20069;-49
2023/12/25 04:44:08;;;;;;;10.98;2.80;;;;;;;8.61;100.00;99619.56;4988490;28;20058;-46
2023/12/25 04:46:35;;;;;;;16.58;3.10;;;;;;;8.58;100.00;99623.84;5000129;28;20057;-48
2023/12/25 04:49:04;;;;;;;13.90;3.75;;;;;;;8.57;100.00;99615.94;5002762;28;20046;-47
2023/12/25 04:51:31;;;;;;;18.35;2.80;;;;;;;8.56;100.00;99614.34;4988796;28;20137;-55
2023/12/25 04:53:59;;;;;;;20.05;3.72;;;;;;;8.57;100.00;99614.00;5001600;28;20480;-51
2023/12/25 04:56:26;;;;;;;12.73;2.67;;;;;;;8.57;100.00;99614.00;4988547;28;20139;-48
2023/12/25 04:58:53;;;;;;;16.98;2.13;;;;;;;8.59;100.00;99616.38;4988289;28;20050;-47
2023/12/25 05:01:21;;;;;;;21.38;4.60;;;;;;;8.61;100.00;99616.00;4988513;28;21800;-50
2023/12/25 05:03:49;;;;;;;11.23;2.05;;;;;;;8.63;100.00;99603.47;4988395;28;20042;-52
2023/12/25 05:06:16;;;;;;;13.35;3.45;;;;;;;8.65;100.00;99606.69;4987897;28;20054;-53
2023/12/25 05:08:44;;;;;;;15.95;2.45;;;;;;;8.65;100.00;99597.59;4988221;28;20046;-50
2023/12/25 05:11:11;;;;;;;16.35;2.13;;;;;;;8.65;100.00;99592.88;4989549;28;20400;-51
2023/12/25 05:13:39;;;;;;;9.85;2.03;;;;;;;8.68;100.00;99585.84;4999985;28;20419;-53
2023/12/25 05:16:06;;;;;;;10.32;1.90;;;;;;;8.68;100.00;99586.66;4990217;28;20054;-50
2023/12/25 05:18:33;;;;;;;12.70;3.15;;;;;;;8.68;100.00;99596.88;4999456;28;20050;-52
2023/12/25 05:21:01;;;;;;;9.60;2.17;;;;;;;8.66;100.00;99597.22;4987818;28;20108;-54
2023/12/25 05:23:28;;;;;;;14.75;3.47;;;;;;;8.64;100.00;99594.03;4988473;28;20058;-50
2023/12/25 05:25:57;;;;;;;15.00;2.28;;;;;;;8.63;100.00;99589.66;4988536;28;20050;-52
2023/12/25 05:28:24;;;;;;;13.20;2.42;;;;;;;8.63;100.00;99588.88;4988431;28;20038;-53
2023/12/25 05:30:52;;;;;;;12.43;3.97;;;;;;;8.65;100.00;99579.09;4987904;28;20042;-51
2023/12/25 05:33:20;;;;;;;21.65;4.82;;;;;;;8.68;100.00;99583.09;4987026;28;20050;-53
2023/12/25 05:35:47;;;;;;;13.50;2.17;;;;;;;8.65;100.00;99603.91;5000486;28;20042;-51
2023/12/25 05:38:15;;;;;;;14.02;2.22;;;;;;;8.63;100.00;99589.66;5003230;28;20058;-51
2023/12/25 05:40:42;;;;;;;15.68;2.53;;;;;;;8.62;100.00;99590.84;4990725;28;20039;-49
2023/12/25 05:43:11;;;;;;;17.88;2.78;;;;;;;8.61;100.00;99603.03;4992124;28;20412;-53
2023/12/25 05:45:38;;;;;;;16.70;2.42;;;;;;;8.61;100.00;99600.25;4992072;28;20046;-50
2023/12/25 05:48:06;;;;;;;26.75;5.30;;;;;;;8.62;100.00;99598.31;4991796;28;20077;-51
2023/12/25 05:50:33;;;;;;;21.45;3.25;;;;;;;8.62;100.00;99595.56;5004905;28;20043;-52
2023/12/25 05:53:01;;;;;;;11.52;2.60;;;;;;;8.62;100.00;99590.03;5003740;28;20438;-53
2023/12/25 05:55:28;;;;;;;17.95;4.15;;;;;;;8.61;100.00;99589.22;4992376;28;20051;-50
2023/12/25 05:57:56;;;;;;;14.00;3.00;;;;;;;8.61;100.00;99589.22;4991708;28;20050;-51
2023/12/25 06:00:23;;;;;;;18.30;3.75;;;;;;;8.60;100.00;99576.63;5010672;28;20057;-53
2023/12/25 06:02:50;;;;;;;15.82;2.90;;;;;;;8.60;100.00;99586.84;5010734;28;20412;-51
2023/12/25 06:05:19;;;;;;;10.57;2.90;;;;;;;8.58;100.00;99568.69;4979223;28;20092;-51
2023/12/25 06:07:46;;;;;;;16.35;2.85;;;;;;;8.60;100.00;99584.09;5004784;28;20050;-49
2023/12/25 06:10:14;;;;;;;16.08;3.78;;;;;;;8.61;100.00;99591.19;4993736;28;20420;-49
2023/12/25 06:12:43;;;;;;;27.70;3.38;;;;;;;8.62;100.00;99584.53;4991683;28;20057;-50
2023/12/25 06:15:10;;;;;;;19.08;2.58;;;;;;;8.62;100.00;99593.59;5018252;28;20050;-51
2023/12/25 06:17:38;;;;;;;12.98;3.42;;;;;;;8.63;100.00;99586.91;4990840;28;20052;-53
2023/12/25 06:20:06;;;;;;;13.52;3.40;;;;;;;8.62;100.00;99593.59;4991788;28;20432;-51
2023/12/25 06:22:45;;;;;;;22.33;2.60;;;;;;;8.61;100.00;99585.66;4990728;28;20054;-48
2023/12/25 06:25:12;;;;;;;18.55;3.13;;;;;;;8.59;100.00;99575.00;4991107;28;20054;-52
2023/12/25 06:27:42;;;;;;;24.98;3.92;;;;;;;8.57;100.00;99589.16;4991252;28;20042;-52
2023/12/25 06:30:25;;;;;;;8.67;2.30;;;;;;;8.55;100.00;99588.72;5004001;28;20058;-50
2023/12/25 06:32:53;;;;;;;19.20;2.53;;;;;;;8.55;100.00;99596.22;4989871;28;20046;-53
2023/12/25 06:35:21;;;;;;;13.18;2.75;;;;;;;8.53;100.00;99591.03;4990693;28;20420;-52
2023/12/25 06:37:48;;;;;;;19.45;2.72;;;;;;;8.51;100.00;99598.06;4990662;28;20058;-53
2023/12/25 06:40:16;;;;;;;16.80;4.72;;;;;;;8.49;100.00;99589.34;4991289;28;20050;-53
2023/12/25 06:42:44;;;;;;;17.98;3.58;;;;;;;8.46;100.00;99593.63;4979147;28;20042;-52
2023/12/25 06:45:12;;;;;;;18.90;2.72;;;;;;;8.44;100.00;99595.16;4991928;28;20057;-52
2023/12/25 06:47:39;;;;;;;13.55;2.28;;;;;;;8.44;100.00;99584.13;4991906;28;20049;-53
2023/12/25 06:50:07;;;;;;;14.38;3.05;;;;;;;8.42;100.00;99589.97;4991417;28;20062;-53
2023/12/25 06:52:36;;;;;;;38.10;4.30;;;;;;;8.42;100.00;99583.66;4991292;28;20039;-54
2023/12/25 06:55:04;;;;;;;18.50;3.10;;;;;;;8.41;100.00;99590.34;5004776;28;20050;-53
2023/12/25 06:57:32;;;;;;;19.67;3.33;;;;;;;8.41;100.00;99593.13;5000261;28;20058;-51
2023/12/25 06:59:59;;;;;;;19.92;4.22;;;;;;;8.41;100.00;99590.34;4996173;28;20058;-53
2023/12/25 07:02:27;;;;;;;12.18;3.28;;;;;;;8.40;100.00;99580.47;5000125;28;20065;-51
2023/12/25 07:04:54;;;;;;;21.77;3.25;;;;;;;8.39;100.00;99581.66;4995163;28;20142;-55
2023/12/25 07:07:21;;;;;;;23.05;3.88;;;;;;;8.39;100.00;99604.47;4991773;28;20051;-54
2023/12/25 07:09:49;;;;;;;18.17;3.10;;;;;;;8.36;100.00;99609.94;4991009;28;20042;-56
2023/12/25 07:12:16;;;;;;;13.65;2.80;;;;;;;8.35;100.00;99624.88;4991039;28;20058;-54
2023/12/25 07:14:45;;;;;;;13.35;3.10;;;;;;;8.34;100.00;99634.31;4990729;28;20050;-51
2023/12/25 07:17:12;;;;;;;10.90;3.00;;;;;;;8.34;100.00;99639.84;4990899;28;20046;-55
2023/12/25 07:19:40;;;;;;;12.30;4.38;;;;;;;8.34;100.00;99645.34;5003909;28;21040;-54
2023/12/25 07:22:08;;;;;;;12.68;2.35;;;;;;;8.33;100.00;99646.50;4990938;28;20054;-53
2023/12/25 07:24:35;;;;;;;18.40;3.85;;;;;;;8.33;100.00;99643.75;4990601;28;20515;-51
2023/12/25 07:27:03;;;;;;;11.73;2.47;;;;;;;8.34;100.00;99640.63;4991110;28;20076;-52
2023/12/25 07:29:34;;;;;;;11.75;2.85;;;;;;;8.34;100.00;99618.56;5001268;28;20497;-52
2023/12/25 07:32:01;;;;;;;11.27;2.30;;;;;;;8.37;100.00;99608.75;4991110;28;20424;-53
2023/12/25 07:34:29;;;;;;;17.42;3.05;;;;;;;8.39;100.00;99600.94;4991309;28;20058;-50
2023/12/25 07:36:56;;;;;;;12.63;2.03;;;;;;;8.40;100.00;99591.50;4990237;28;20066;-55
2023/12/25 07:39:24;;;;;;;8.65;1.70;;;;;;;8.41;100.00;99590.34;4990486;28;20043;-55
2023/12/25 07:41:51;;;;;;;18.65;2.60;;;;;;;8.41;100.00;99596.69;4990650;28;20054;-52
2023/12/25 07:44:20;;;;;;;15.63;4.13;;;;;;;8.41;100.00;99590.34;4990904;28;20412;-53
2023/12/25 07:46:48;;;;;;;18.42;2.90;;;;;;;8.42;100.00;99597.44;4990209;28;20042;-54
2023/12/25 07:49:17;;;;;;;14.45;3.28;;;;;;;8.41;100.00;99591.16;4990403;28;20046;-54
2023/12/25 07:51:45;;;;;;;10.48;1.98;;;;;;;8.41;100.00;99590.34;4987249;28;20047;-58
2023/12/25 07:54:12;;;;;;;18.30;2.22;;;;;;;8.41;100.00;99593.13;4988443;28;20058;-55
2023/12/25 07:56:39;;;;;;;9.18;1.80;;;;;;;8.40;100.00;99591.50;5004821;28;20054;-54
2023/12/25 07:59:07;;;;;;;14.25;2.60;;;;;;;8.40;100.00;99599.78;4990471;28;20050;-54
2023/12/25 08:01:34;;;;;;;11.82;1.52;;;;;;;8.39;100.00;99595.44;4989923;28;20043;-58
2023/12/25 08:04:02;;;;;;;14.35;2.85;;;;;;;8.38;100.00;99608.41;4976645;28;20527;-54
2023/12/25 08:06:31;;;;;;;10.15;2.00;;;;;;;8.39;100.00;99614.75;4990219;28;20062;-54
2023/12/25 08:08:58;;;;;;;10.82;2.70;;;;;;;8.37;100.00;99636.34;4990272;28;20052;-56
2023/12/25 08:11:27;;;;;;;13.30;2.35;;;;;;;8.36;100.00;99632.00;4989550;28;20143;-55
2023/12/25 08:13:54;;;;;;;10.85;1.75;;;;;;;8.37;100.00;99636.34;4990087;28;20051;-53
2023/12/25 08:16:22;;;;;;;6.35;3.08;;;;;;;8.38;100.00;99619.44;4991451;28;20046;-54
2023/12/25 08:18:49;;;;;;;15.75;3.60;;;;;;;8.37;100.00;99626.13;4990129;28;20046;-53
2023/12/25 08:21:17;;;;;;;17.50;3.30;;;;;;;8.40;100.00;99610.81;5002677;28;20053;-54
2023/12/25 08:23:44;;;;;;;20.33;3.50;;;;;;;8.41;100.00;99609.66;5000198;28;20508;-53
2023/12/25 08:26:11;;;;;;;13.02;3.00;;;;;;;8.44;100.00;99612.50;4989270;28;20047;-52
2023/12/25 08:28:40;;;;;;;21.00;4.07;;;;;;;8.44;100.00;99607.00;4989728;28;20050;-55
2023/12/25 08:31:08;;;;;;;17.55;3.47;;;;;;;8.45;100.00;99607.78;4989320;28;20051;-52
2023/12/25 08:33:35;;;;;;;11.63;3.10;;;;;;;8.47;100.00;99588.94;5003834;28;20057;-53
2023/12/25 08:36:04;;;;;;;13.82;2.42;;;;;;;8.48;100.00;99590.50;4984876;28;20552;-54
2023/12/25 08:38:32;;;;;;;18.25;5.32;;;;;;;8.49;100.00;99609.47;4999664;28;20058;-56
2023/12/25 08:41:03;;;;;;;14.27;2.75;;;;;;;8.49;100.00;99597.63;5003763;28;20047;-52
2023/12/25 08:43:31;;;;;;;15.70;2.78;;;;;;;8.51;100.00;99595.31;4989547;28;20065;-56
2023/12/25 08:45:58;;;;;;;11.90;2.20;;;;;;;8.52;100.00;99597.69;4983393;28;20050;-50
2023/12/25 08:48:26;;;;;;;12.70;3.33;;;;;;;8.55;100.00;99585.19;4995622;28;20054;-53
2023/12/25 08:50:55;;;;;;;11.20;2.53;;;;;;;8.55;100.00;99599.75;4989558;28;20053;-54
2023/12/25 08:53:22;;;;;;;20.15;3.17;;;;;;;8.57;100.00;99593.88;4989655;28;20420;-52
2023/12/25 08:55:50;;;;;;;18.55;3.30;;;;;;;8.58;100.00;99598.22;4988564;28;20892;-53
2023/12/25 08:58:17;;;;;;;18.17;3.08;;;;;;;8.58;100.00;99601.78;4988096;28;20050;-54
2023/12/25 09:00:45;;;;;;;9.20;2.25;;;;;;;8.60;100.00;99592.38;4987342;28;20054;-48
2023/12/25 09:03:13;;;;;;;15.35;4.90;;;;;;;8.57;100.00;99589.16;4988835;28;20050;-56
2023/12/25 09:05:40;;;;;;;12.02;3.10;;;;;;;8.55;100.00;99613.53;4988229;28;20045;-52
2023/12/25 09:08:08;;;;;;;8.05;1.58;;;;;;;8.55;100.00;99612.75;4987466;28;20054;-54
2023/12/25 09:10:36;;;;;;;13.27;2.90;;;;;;;8.53;100.00;99623.34;4987006;28;20082;-53
2023/12/25 09:13:04;;;;;;;14.15;3.58;;;;;;;8.51;100.00;99618.19;4986254;28;20404;-53
2023/12/25 09:15:31;;;;;;;14.07;3.10;;;;;;;8.50;100.00;99621.28;4988516;28;20050;-55
2023/12/25 09:17:58;;;;;;;7.47;1.90;;;;;;;8.50;100.00;99627.59;5003902;28;20034;-50
2023/12/25 09:20:27;;;;;;;10.35;1.88;;;;;;;8.51;100.00;99614.63;4984446;28;20049;-53
2023/12/25 09:22:54;;;;;;;7.47;2.38;;;;;;;8.51;100.00;99617.38;4988659;28;20057;-53
2023/12/25 09:25:23;;;;;;;6.57;1.83;;;;;;;8.50;100.00;99615.78;4988968;28;20043;-52
2023/12/25 09:27:50;;;;;;;13.75;2.58;;;;;;;8.51;100.00;99606.34;4988349;28;20053;-51
2023/12/25 09:30:18;;;;;;;8.05;1.77;;;;;;;8.52;100.00;99607.97;4988682;28;20050;-54
2023/12/25 09:32:46;;;;;;;8.00;2.00;;;;;;;8.53;100.00;99595.75;5003974;28;20045;-52
2023/12/25 09:35:18;;;;;;;12.85;3.13;;;;;;;8.53;100.00;99592.97;4989207;28;20046;-52
2023/12/25 09:37:45;;;;;;;12.35;2.00;;;;;;;8.53;100.00;99581.94;5003913;28;20054;-53
2023/12/25 09:40:14;;;;;;;10.65;2.60;;;;;;;8.54;100.00;99589.09;5001576;28;20038;-53
2023/12/25 09:42:44;;;;;;;14.48;2.25;;;;;;;8.54;100.00;99567.00;4989030;28;20035;-53
2023/12/25 09:45:13;;;;;;;16.27;2.97;;;;;;;8.55;100.00;99574.13;4991784;28;20058;-54
2023/12/25 09:47:41;;;;;;;11.90;2.15;;;;;;;8.55;100.00;99574.91;4987612;28;20050;-54
2023/12/25 09:50:10;;;;;;;15.02;1.77;;;;;;;8.56;100.00;99567.44;4986888;28;20050;-53
2023/12/25 09:52:38;;;;;;;9.48;1.73;;;;;;;8.56;100.00;99543.41;4988105;28;20573;-54
2023/12/25 09:55:06;;;;;;;13.60;2.33;;;;;;;8.57;100.00;99569.06;4988072;28;20042;-51
2023/12/25 09:57:35;;;;;;;9.95;2.22;;;;;;;8.58;100.00;99573.41;4988085;28;20050;-55
2023/12/25 10:00:05;;;;;;;7.80;1.40;;;;;;;8.60;100.00;99568.34;4986816;28;20416;-52
2023/12/25 10:02:37;;;;;;;11.20;2.08;;;;;;;8.62;100.00;99540.38;4986935;28;20042;-55
2023/12/25 10:05:08;;;;;;;19.77;2.03;;;;;;;8.65;100.00;99550.69;4983817;28;20050;-54
2023/12/25 10:07:35;;;;;;;7.35;2.13;;;;;;;8.65;100.00;99536.91;4985947;28;20445;-52
2023/12/25 10:10:07;;;;;;;13.35;2.85;;;;;;;8.68;100.00;99545.25;4985225;28;20112;-52
2023/12/25 10:12:35;;;;;;;12.35;2.08;;;;;;;8.70;100.00;99547.66;4986057;28;20057;-49
2023/12/25 10:15:05;;;;;;;13.63;2.47;;;;;;;8.73;100.00;99569.00;4984613;28;20470;-54
2023/12/25 10:17:32;;;;;;;8.23;1.75;;;;;;;8.74;100.00;99554.03;4987474;28;20062;-53
2023/12/25 10:20:00;;;;;;;15.20;4.00;;;;;;;8.76;100.00;99555.28;4988288;28;20038;-51
2023/12/25 10:22:30;;;;;;;12.10;2.40;;;;;;;8.79;100.00;99557.31;4988250;28;20062;-53
2023/12/25 10:25:08;;;;;;;13.20;2.90;;;;;;;8.80;100.00;99569.94;4988415;28;20046;-53
2023/12/25 10:27:38;;;;;;;18.45;4.72;;;;;;;8.82;100.00;99561.28;4990173;28;20050;-54
2023/12/25 10:30:20;;;;;;;15.48;4.57;;;;;;;8.80;100.00;99571.91;4989967;28;20039;-53
2023/12/25 10:32:49;;;;;;;10.50;2.17;;;;;;;8.77;100.00;99559.63;4989927;28;20400;-50
2023/12/25 10:35:18;;;;;;;16.08;3.22;;;;;;;8.75;100.00;99542.66;4987968;28;20049;-54
2023/12/25 10:37:46;;;;;;;19.48;2.83;;;;;;;8.74;100.00;99552.06;5005884;28;20082;-54
2023/12/25 10:40:22;;;;;;;20.08;2.92;;;;;;;8.75;100.00;99550.13;4988638;28;20049;-55
2023/12/25 10:42:52;;;;;;;16.05;3.10;;;;;;;8.74;100.00;99541.03;4990217;28;20046;-51
2023/12/25 10:45:23;;;;;;;18.90;4.55;;;;;;;8.77;100.00;99539.50;4990469;28;20038;-54
2023/12/25 10:48:03;;;;;;;19.08;3.15;;;;;;;8.77;100.00;99551.34;5002627;28;20046;-53
2023/12/25 10:50:38;;;;;;;15.57;2.78;;;;;;;8.78;100.00;99541.94;4988542;28;20404;-52
2023/12/25 10:53:09;;;;;;;20.17;4.68;;;;;;;8.80;100.00;99553.41;4989244;28;20046;-53
2023/12/25 10:55:41;;;;;;;11.98;3.20;;;;;;;8.85;100.00;99561.38;4989370;28;20072;-53
2023/12/25 10:58:11;;;;;;;10.65;2.88;;;;;;;8.87;100.00;99553.53;4988858;28;20505;-53
2023/12/25 11:00:43;;;;;;;11.48;2.30;;;;;;;8.90;100.00;99563.03;5003689;28;20038;-53
2023/12/25 11:03:15;;;;;;;13.85;2.40;;;;;;;8.93;100.00;99563.13;4987856;28;20061;-54
2023/12/25 11:05:44;;;;;;;18.98;3.03;;;;;;;8.97;100.00;99539.19;4994976;28;20042;-54
2023/12/25 11:08:13;;;;;;;10.65;2.88;;;;;;;9.00;100.00;99534.88;4996759;28;20051;-53
2023/12/25 11:10:47;;;;;;;12.88;3.55;;;;;;;9.02;100.00;99516.00;4989902;28;20038;-54
2023/12/25 11:13:15;;;;;;;18.58;3.90;;;;;;;9.03;100.00;99507.34;4990609;28;20046;-54
2023/12/25 11:15:42;;;;;;;10.70;3.10;;;;;;;9.04;100.00;99497.91;4990529;28;20087;-52
2023/12/25 11:18:10;;;;;;;11.00;2.47;;;;;;;9.08;100.00;99489.69;4990363;28;20057;-53
2023/12/25 11:20:40;;;;;;;20.48;2.92;;;;;;;9.09;100.00;99486.56;4989591;28;20735;-54
2023/12/25 11:23:10;;;;;;;9.70;2.65;;;;;;;9.13;100.00;99479.13;4989040;28;20519;-53
2023/12/25 11:25:37;;;;;;;11.68;2.58;;;;;;;9.17;100.00;99490.25;4987930;28;20054;-52
2023/12/25 11:28:04;;;;;;;14.23;2.28;;;;;;;9.21;100.00;99507.69;4987921;28;20125;-52
2023/12/25 11:30:35;;;;;;;19.63;4.05;;;;;;;9.26;100.00;99520.41;4988892;28;20373;-53
2023/12/25 11:33:03;;;;;;;8.52;2.05;;;;;;;9.29;100.00;99519.66;4987147;28;20052;-53